Αναφορές Αεροδρομίων

 

KSJC - San Jose, California, USA
Distance from station: ΒΑ 14km
Ενημερώθηκε: 26/01/2021 21:53
Σχεδόν νεφελώδης
Σχεδόν νεφελώδης
 Ανεμος από ΝΑ
Ανεμος: ΝΑ 19 km/h
Θερμοκρασία: 10°C
Wind Chill: 7°C
Σημείο Δρόσου: 0°C
Υγρασία: 50%
Βαρόμετρο: 1015.6 hPa
Clouds: Σχεδόν νεφελώδης
Visibility: 16 km
Cloud details: Few Clouds 792 m
Μερικώς νεφελώδης 1067 m
Σχεδόν νεφελώδης 3048 m
2021/01/26 19:53 KSJC 261953Z 14010KT 10SM FEW026 SCT035 BKN100 10/00 A2999 RMK AO2 SLP156 T01000000
KNUQ - Moffett Nas/Mtn, California, USA
Distance from station: Β 14km
Ενημερώθηκε: 26/01/2021 22:30
Σχεδόν νεφελώδης
Σχεδόν νεφελώδης
 Ανεμος από ΑΝΑ
Ανεμος: ΑΝΑ 15 km/h
Θερμοκρασία: 11°C
Σημείο Δρόσου: 2°C
Υγρασία: 54%
Βαρόμετρο: 1014.9 hPa
Clouds: Σχεδόν νεφελώδης
Visibility: 16 km
Cloud details: Μερικώς νεφελώδης 1341 m
Σχεδόν νεφελώδης 1524 m
Σχεδόν νεφελώδης 2286 m
2021/01/26 20:30 KNUQ 262030Z AUTO 12008KT 10SM SCT044 BKN050 BKN075 11/02 A2997 RMK AO2
 
KPAO - Palo Alto, California, USA
Distance from station: ΒΒΔ 23km
Ενημερώθηκε: 26/01/2021 21:57
Σχεδόν νεφελώδης
Σχεδόν νεφελώδης
 Ανεμος από ΝΑ
Ανεμος: ΝΑ 13 km/h
Θερμοκρασία: 9°C
Wind Chill: 7°C
Σημείο Δρόσου: 1°C
Υγρασία: 58%
Βαρόμετρο: 1015.9 hPa
Clouds: Σχεδόν νεφελώδης
Visibility: 16 km
Cloud details: Σχεδόν νεφελώδης 914 m
2021/01/26 19:57 KPAO 261957Z 13007KT 10SM BKN030 09/01 A3000
KRHV - San Jose/Reid, California, USA
Distance from station: ΑΒΑ 19km
Ενημερώθηκε: 26/01/2021 21:45
Σχεδόν νεφελώδης
Σχεδόν νεφελώδης
 Ανεμος από ΝΑ
Ανεμος: ΝΑ 7 km/h
Θερμοκρασία: 10°C
Wind Chill: 9°C
Σημείο Δρόσου: 0°C
Υγρασία: 50%
Βαρόμετρο: 1015.9 hPa
Clouds: Σχεδόν νεφελώδης
Visibility: 16 km
Cloud details: Μερικώς νεφελώδης 3048 m
Σχεδόν νεφελώδης 3658 m
2021/01/26 19:45 KRHV 261945Z 14004KT 10SM SCT100 BKN120 10/00 A3000
 
KOAK - Oakland, California, USA
Distance from station: ΒΒΔ 50km
Ενημερώθηκε: 26/01/2021 21:53
Συννεφιά
Συννεφιά
 Ανεμος από ΝΝΑ
Ανεμος: ΝΝΑ 22 km/h
Θερμοκρασία: 11°C
Σημείο Δρόσου: 2°C
Υγρασία: 54%
Βαρόμετρο: 1015.6 hPa
Clouds: Συννεφιά
Visibility: 16 km
Cloud details: Μερικώς νεφελώδης 457 m
Σχεδόν νεφελώδης 1372 m
Συννεφιά 3048 m
2021/01/26 19:53 KOAK 261953Z 16012KT 10SM SCT015 BKN045 OVC100 11/02 A2999 RMK AO2 SLP155 T01110017
KSQL - San Carlos Airpo, California, USA
Distance from station: ΒΔ 34km
Ενημερώθηκε: 26/01/2021 22:48
Συννεφιά
Συννεφιά
 Ανεμος από Ν
Ανεμος: Ν 19 km/h
Θερμοκρασία: 10°C
Wind Chill: 7°C
Σημείο Δρόσου: 1°C
Υγρασία: 54%
Βαρόμετρο: 1014.9 hPa
Clouds: Συννεφιά
Visibility: 16 km
Cloud details: Σχεδόν νεφελώδης 1219 m
Συννεφιά 3353 m
2021/01/26 20:48 KSQL 262048Z 18010KT 10SM BKN040 OVC110 10/01 A2997
 
KSFO - San Francisco, California, USA
Distance from station: ΒΔ 49km
Ενημερώθηκε: 26/01/2021 21:56
Σχεδόν νεφελώδης
Σχεδόν νεφελώδης
 Ανεμος από ΝΝΔ
Ανεμος: ΝΝΔ 20 km/h
Θερμοκρασία: 11°C
Σημείο Δρόσου: 2°C
Υγρασία: 54%
Βαρόμετρο: 1015.2 hPa
Clouds: Σχεδόν νεφελώδης
Visibility: 16 km
Cloud details: Σχεδόν νεφελώδης 1128 m
Σχεδόν νεφελώδης 3048 m
2021/01/26 19:56 KSFO 261956Z 20011KT 10SM BKN037 BKN100 11/02 A2998 RMK AO2 SLP150 T01110022
KE16 - San Martin, California, USA
Distance from station: ΑΝΑ 43km
Ενημερώθηκε: 26/01/2021 22:35
Μερικώς νεφελώδης
Μερικώς νεφελώδης
 Ανεμος από Ν
Ανεμος: Ν 11 km/h
Θερμοκρασία: 9°C
Wind Chill: 7°C
Σημείο Δρόσου: 2°C
Υγρασία: 62%
Βαρόμετρο: 1016.3 hPa
Clouds: Μερικώς νεφελώδης
Visibility: 16 km
Cloud details: Μερικώς νεφελώδης 1097 m
2021/01/26 20:35 KE16 262035Z AUTO 17006KT 10SM SCT036 09/02 A3001 RMK AO2
 
KWVI - Watsonville, California, USA
Distance from station: ΝΝΑ 44km
Ενημερώθηκε: 26/01/2021 21:53
Σχεδόν νεφελώδης
Σχεδόν νεφελώδης
 Ανεμος από ΝΝΔ
Ανεμος: ΝΝΔ 11 km/h
Θερμοκρασία: 10°C
Wind Chill: 8°C
Σημείο Δρόσου: 3°C
Υγρασία: 62%
Βαρόμετρο: 1016.6 hPa
Clouds: Σχεδόν νεφελώδης
Visibility: 16 km
Cloud details: Few Clouds 853 m
Σχεδόν νεφελώδης 3048 m
2021/01/26 19:53 KWVI 261953Z AUTO 20006KT 10SM FEW028 BKN100 10/03 A3002 RMK AO2 SLP166 T01000028
KHAF - Half Moon Bay, California, USA
Distance from station: ΔΒΔ 50km
Ενημερώθηκε: 26/01/2021 22:35
Αίθριος
Αίθριος
 Ανεμος από Ν
Ανεμος: Ν 24 km/h, Ριπή: 31 km/h
Θερμοκρασία: 9°C
Wind Chill: 6°C
Σημείο Δρόσου: 5°C
Υγρασία: 76%
Βαρόμετρο: 1014.9 hPa
Clouds: Αίθριος
Visibility: 13 km
2021/01/26 20:35 KHAF 262035Z AUTO 17013G17KT 8SM CLR 09/05 A2997 RMK AO2
 
KHWD - Hayward, California, USA
Distance from station: Β 44km
Ενημερώθηκε: 26/01/2021 21:54
Σχεδόν νεφελώδης
Σχεδόν νεφελώδης
 Ανεμος από Ν
Ανεμος: Ν 17 km/h
Θερμοκρασία: 9°C
Wind Chill: 7°C
Σημείο Δρόσου: 1°C
Υγρασία: 58%
Βαρόμετρο: 1015.2 hPa
Clouds: Σχεδόν νεφελώδης
Visibility: 16 km
Cloud details: Μερικώς νεφελώδης 1158 m
Σχεδόν νεφελώδης 3048 m
2021/01/26 19:54 KHWD 261954Z 17009KT 10SM SCT038 BKN100 09/01 A2998 RMK AO2 SLP163 T00940006
KLVK - Livermore, California, USA
Distance from station: ΒΒΑ 51km
Ενημερώθηκε: 26/01/2021 22:53
Σχεδόν νεφελώδης
Σχεδόν νεφελώδης
 Ανεμος από ΔΝΔ
Ανεμος: ΔΝΔ 17 km/h
Θερμοκρασία: 10°C
Wind Chill: 8°C
Σημείο Δρόσου: 0°C
Υγρασία: 50%
Βαρόμετρο: 1014.2 hPa
Clouds: Σχεδόν νεφελώδης
Visibility: 16 km
Cloud details: Few Clouds 1189 m
Σχεδόν νεφελώδης 2896 m
2021/01/26 20:53 KLVK 262053Z 24009KT 10SM FEW039 BKN095 10/00 A2995 RMK AO2 SLP143 T01000000 58010